sensor_id;sensor_type;location;lat;lon;timestamp;pressure;altitude;pressure_sealevel;temperature
64600;BMP280;6553;48.412;9.514;2023-08-21T00:00:07;72265.94;;;25.49
64600;BMP280;6553;48.412;9.514;2023-08-21T00:02:33;72260.34;;;25.49
64600;BMP280;6553;48.412;9.514;2023-08-21T00:04:59;72260.34;;;25.49
64600;BMP280;6553;48.412;9.514;2023-08-21T00:07:25;72262.63;;;25.48
64600;BMP280;6553;48.412;9.514;2023-08-21T00:09:50;72259.28;;;25.48
64600;BMP280;6553;48.412;9.514;2023-08-21T00:12:16;72254.38;;;25.46
64600;BMP280;6553;48.412;9.514;2023-08-21T00:14:42;72259.44;;;25.45
64600;BMP280;6553;48.412;9.514;2023-08-21T00:17:08;72257.03;;;25.48
64600;BMP280;6553;48.412;9.514;2023-08-21T00:19:34;72255.41;;;25.47
64600;BMP280;6553;48.412;9.514;2023-08-21T00:22:00;72257.81;;;25.44
64600;BMP280;6553;48.412;9.514;2023-08-21T00:24:26;72252.63;;;25.47
64600;BMP280;6553;48.412;9.514;2023-08-21T00:26:52;72259.97;;;25.46
64600;BMP280;6553;48.412;9.514;2023-08-21T00:29:18;72250.13;;;25.42
64600;BMP280;6553;48.412;9.514;2023-08-21T00:31:44;72252.75;;;25.44
64600;BMP280;6553;48.412;9.514;2023-08-21T00:34:10;72257.28;;;25.43
64600;BMP280;6553;48.412;9.514;2023-08-21T00:36:35;72257.16;;;25.46
64600;BMP280;6553;48.412;9.514;2023-08-21T00:39:01;72253.97;;;25.43
64600;BMP280;6553;48.412;9.514;2023-08-21T00:41:29;72256.09;;;25.45
64600;BMP280;6553;48.412;9.514;2023-08-21T00:43:54;72253.44;;;25.42
64600;BMP280;6553;48.412;9.514;2023-08-21T00:46:20;72255.72;;;25.42
64600;BMP280;6553;48.412;9.514;2023-08-21T00:48:47;72257.81;;;25.44
64600;BMP280;6553;48.412;9.514;2023-08-21T00:51:15;72254.47;;;25.43
64600;BMP280;6553;48.412;9.514;2023-08-21T00:53:42;72253.97;;;25.43
64600;BMP280;6553;48.412;9.514;2023-08-21T00:56:09;72252.22;;;25.44
64600;BMP280;6553;48.412;9.514;2023-08-21T00:58:35;72260.06;;;25.43
64600;BMP280;6553;48.412;9.514;2023-08-21T01:01:01;72255.03;;;25.44
64600;BMP280;6553;48.412;9.514;2023-08-21T01:03:29;72255.16;;;25.41
64600;BMP280;6553;48.412;9.514;2023-08-21T01:05:55;72252.91;;;25.42
64600;BMP280;6553;48.412;9.514;2023-08-21T01:09:00;72257.28;;;25.43
64600;BMP280;6553;48.412;9.514;2023-08-21T01:11:38;72254.47;;;25.43
64600;BMP280;6553;48.412;9.514;2023-08-21T01:14:17;72254.63;;;25.41
64600;BMP280;6553;48.412;9.514;2023-08-21T01:16:53;72250.66;;;25.42
64600;BMP280;6553;48.412;9.514;2023-08-21T01:19:48;72251.84;;;25.41
64600;BMP280;6553;48.412;9.514;2023-08-21T01:22:15;72249.03;;;25.41
64600;BMP280;6553;48.412;9.514;2023-08-21T01:24:41;72249.56;;;25.41
64600;BMP280;6553;48.412;9.514;2023-08-21T01:27:09;72254.25;;;25.38
64600;BMP280;6553;48.412;9.514;2023-08-21T01:29:35;72256.88;;;25.40
64600;BMP280;6553;48.412;9.514;2023-08-21T01:35:11;72252.53;;;25.39
64600;BMP280;6553;48.412;9.514;2023-08-21T01:37:38;72254.09;;;25.40
64600;BMP280;6553;48.412;9.514;2023-08-21T01:40:05;72251.44;;;25.38
64600;BMP280;6553;48.412;9.514;2023-08-21T01:42:31;72250.75;;;25.40
64600;BMP280;6553;48.412;9.514;2023-08-21T01:44:57;72251.84;;;25.41
64600;BMP280;6553;48.412;9.514;2023-08-21T01:47:23;72251.28;;;25.40
64600;BMP280;6553;48.412;9.514;2023-08-21T01:49:48;72248.13;;;25.37
64600;BMP280;6553;48.412;9.514;2023-08-21T01:52:18;72247.56;;;25.37
64600;BMP280;6553;48.412;9.514;2023-08-21T01:54:44;72251.97;;;25.38
64600;BMP280;6553;48.412;9.514;2023-08-21T01:57:10;72248.66;;;25.38
64600;BMP280;6553;48.412;9.514;2023-08-21T01:59:35;72249.19;;;25.38
64600;BMP280;6553;48.412;9.514;2023-08-21T02:02:01;72246.00;;;25.35
64600;BMP280;6553;48.412;9.514;2023-08-21T02:04:27;72247.56;;;25.37
64600;BMP280;6553;48.412;9.514;2023-08-21T02:06:53;72247.72;;;25.34
64600;BMP280;6553;48.412;9.514;2023-08-21T02:09:20;72246.53;;;25.36
64600;BMP280;6553;48.412;9.514;2023-08-21T02:11:46;72246.53;;;25.36
64600;BMP280;6553;48.412;9.514;2023-08-21T02:14:12;72247.19;;;25.34
64600;BMP280;6553;48.412;9.514;2023-08-21T02:16:38;72247.03;;;25.36
64600;BMP280;6553;48.412;9.514;2023-08-21T02:19:04;72248.66;;;25.38
64600;BMP280;6553;48.412;9.514;2023-08-21T02:21:31;72246.53;;;25.36
64600;BMP280;6553;48.412;9.514;2023-08-21T02:23:57;72248.66;;;25.38
64600;BMP280;6553;48.412;9.514;2023-08-21T02:26:22;72250.38;;;25.37
64600;BMP280;6553;48.412;9.514;2023-08-21T02:28:49;72255.31;;;25.39
64600;BMP280;6553;48.412;9.514;2023-08-21T02:31:15;72250.38;;;25.37
64600;BMP280;6553;48.412;9.514;2023-08-21T02:33:41;72241.59;;;25.34
64600;BMP280;6553;48.412;9.514;2023-08-21T02:36:07;72252.63;;;25.36
64600;BMP280;6553;48.412;9.514;2023-08-21T02:38:33;72247.56;;;25.37
64600;BMP280;6553;48.412;9.514;2023-08-21T02:40:58;72241.06;;;25.33
64600;BMP280;6553;48.412;9.514;2023-08-21T02:43:24;72242.81;;;25.32
64600;BMP280;6553;48.412;9.514;2023-08-21T02:45:50;72249.81;;;25.36
64600;BMP280;6553;48.412;9.514;2023-08-21T02:48:16;72242.28;;;25.32
64600;BMP280;6553;48.412;9.514;2023-08-21T02:50:41;72242.28;;;25.32
64600;BMP280;6553;48.412;9.514;2023-08-21T02:53:07;72241.59;;;25.34
64600;BMP280;6553;48.412;9.514;2023-08-21T02:55:33;72246.53;;;25.36
64600;BMP280;6553;48.412;9.514;2023-08-21T02:57:59;72242.13;;;25.34
64600;BMP280;6553;48.412;9.514;2023-08-21T03:00:25;72243.34;;;25.33
64600;BMP280;6553;48.412;9.514;2023-08-21T03:02:51;72245.59;;;25.32
64600;BMP280;6553;48.412;9.514;2023-08-21T03:05:17;72245.59;;;25.32
64600;BMP280;6553;48.412;9.514;2023-08-21T03:07:42;72246.16;;;25.33
64600;BMP280;6553;48.412;9.514;2023-08-21T03:10:09;72244.38;;;25.34
64600;BMP280;6553;48.412;9.514;2023-08-21T03:12:35;72247.19;;;25.34
64600;BMP280;6553;48.412;9.514;2023-08-21T03:15:01;72238.41;;;25.31
64600;BMP280;6553;48.412;9.514;2023-08-21T03:17:27;72241.75;;;25.31
64600;BMP280;6553;48.412;9.514;2023-08-21T03:19:52;72242.28;;;25.32
64600;BMP280;6553;48.412;9.514;2023-08-21T03:22:18;72244.38;;;25.34
64600;BMP280;6553;48.412;9.514;2023-08-21T03:24:44;72244.38;;;25.34
64600;BMP280;6553;48.412;9.514;2023-08-21T03:27:10;72244.38;;;25.34
64600;BMP280;6553;48.412;9.514;2023-08-21T03:29:35;72244.38;;;25.34
64600;BMP280;6553;48.412;9.514;2023-08-21T03:32:01;72244.53;;;25.31
64600;BMP280;6553;48.412;9.514;2023-08-21T03:34:27;72241.75;;;25.31
64600;BMP280;6553;48.412;9.514;2023-08-21T03:36:57;72241.75;;;25.31
64600;BMP280;6553;48.412;9.514;2023-08-21T03:39:23;72241.34;;;25.28
64600;BMP280;6553;48.412;9.514;2023-08-21T03:41:49;72244.53;;;25.31
64600;BMP280;6553;48.412;9.514;2023-08-21T03:44:16;72241.88;;;25.29
64600;BMP280;6553;48.412;9.514;2023-08-21T03:46:41;72240.66;;;25.30
64600;BMP280;6553;48.412;9.514;2023-08-21T03:49:09;72242.28;;;25.32
64600;BMP280;6553;48.412;9.514;2023-08-21T03:51:34;72237.47;;;25.27
64600;BMP280;6553;48.412;9.514;2023-08-21T03:54:00;72240.28;;;25.27
64600;BMP280;6553;48.412;9.514;2023-08-21T03:56:26;72236.28;;;25.29
64600;BMP280;6553;48.412;9.514;2023-08-21T03:58:53;72236.41;;;25.26
64600;BMP280;6553;48.412;9.514;2023-08-21T04:01:19;72241.19;;;25.31
64600;BMP280;6553;48.412;9.514;2023-08-21T04:03:45;72238.69;;;25.26
64600;BMP280;6553;48.412;9.514;2023-08-21T04:06:11;72244.00;;;25.31
64600;BMP280;6553;48.412;9.514;2023-08-21T04:08:37;72239.63;;;25.29
64600;BMP280;6553;48.412;9.514;2023-08-21T04:11:04;72235.91;;;25.26
64600;BMP280;6553;48.412;9.514;2023-08-21T04:13:30;72236.94;;;25.27
64600;BMP280;6553;48.412;9.514;2023-08-21T04:15:55;72236.94;;;25.27
64600;BMP280;6553;48.412;9.514;2023-08-21T04:18:22;72237.47;;;25.27
64600;BMP280;6553;48.412;9.514;2023-08-21T04:20:48;72239.63;;;25.29
64600;BMP280;6553;48.412;9.514;2023-08-21T04:23:14;72238.94;;;25.31
64600;BMP280;6553;48.412;9.514;2023-08-21T04:25:40;72234.81;;;25.25
64600;BMP280;6553;48.412;9.514;2023-08-21T04:28:06;72237.47;;;25.27
64600;BMP280;6553;48.412;9.514;2023-08-21T04:30:33;72234.69;;;25.27
64600;BMP280;6553;48.412;9.514;2023-08-21T04:33:00;72236.16;;;25.21
64600;BMP280;6553;48.412;9.514;2023-08-21T04:35:26;72236.94;;;25.27
64600;BMP280;6553;48.412;9.514;2023-08-21T04:37:52;72237.63;;;25.25
64600;BMP280;6553;48.412;9.514;2023-08-21T04:40:20;72234.81;;;25.25
64600;BMP280;6553;48.412;9.514;2023-08-21T04:42:47;72230.41;;;25.23
64600;BMP280;6553;48.412;9.514;2023-08-21T04:45:14;72229.78;;;25.25
64600;BMP280;6553;48.412;9.514;2023-08-21T04:47:39;72237.09;;;25.24
64600;BMP280;6553;48.412;9.514;2023-08-21T04:50:06;72239.34;;;25.24
64600;BMP280;6553;48.412;9.514;2023-08-21T04:52:32;72230.41;;;25.23
64600;BMP280;6553;48.412;9.514;2023-08-21T04:54:59;72235.38;;;25.25
64600;BMP280;6553;48.412;9.514;2023-08-21T04:57:26;72231.50;;;25.24
64600;BMP280;6553;48.412;9.514;2023-08-21T04:59:52;72237.09;;;25.24
64600;BMP280;6553;48.412;9.514;2023-08-21T05:02:20;72233.75;;;25.24
64600;BMP280;6553;48.412;9.514;2023-08-21T05:04:46;72247.06;;;25.26
64600;BMP280;6553;48.412;9.514;2023-08-21T05:07:12;72234.81;;;25.25
64600;BMP280;6553;48.412;9.514;2023-08-21T05:09:39;72231.66;;;25.22
64600;BMP280;6553;48.412;9.514;2023-08-21T05:12:08;72233.09;;;25.26
64600;BMP280;6553;48.412;9.514;2023-08-21T05:14:34;72235.50;;;25.23
64600;BMP280;6553;48.412;9.514;2023-08-21T05:17:00;72237.63;;;25.25
64600;BMP280;6553;48.412;9.514;2023-08-21T05:19:26;72237.63;;;25.25
64600;BMP280;6553;48.412;9.514;2023-08-21T05:21:52;72228.84;;;25.22
64600;BMP280;6553;48.412;9.514;2023-08-21T05:24:18;72234.44;;;25.22
64600;BMP280;6553;48.412;9.514;2023-08-21T05:26:53;72229.38;;;25.22
64600;BMP280;6553;48.412;9.514;2023-08-21T05:29:18;72231.66;;;25.22
64600;BMP280;6553;48.412;9.514;2023-08-21T05:31:44;72229.50;;;25.20
64600;BMP280;6553;48.412;9.514;2023-08-21T05:34:10;72231.66;;;25.22
64600;BMP280;6553;48.412;9.514;2023-08-21T05:36:36;72231.66;;;25.22
64600;BMP280;6553;48.412;9.514;2023-08-21T05:39:04;72229.38;;;25.22
64600;BMP280;6553;48.412;9.514;2023-08-21T05:41:33;72237.22;;;25.22
64600;BMP280;6553;48.412;9.514;2023-08-21T05:43:59;72225.66;;;25.19
64600;BMP280;6553;48.412;9.514;2023-08-21T05:46:25;72230.56;;;25.21
64600;BMP280;6553;48.412;9.514;2023-08-21T05:48:51;72235.63;;;25.20
64600;BMP280;6553;48.412;9.514;2023-08-21T05:51:17;72229.50;;;25.20
64600;BMP280;6553;48.412;9.514;2023-08-21T05:53:43;72230.03;;;25.20
64600;BMP280;6553;48.412;9.514;2023-08-21T05:56:09;72230.56;;;25.21
64600;BMP280;6553;48.412;9.514;2023-08-21T05:58:34;72231.66;;;25.22
64600;BMP280;6553;48.412;9.514;2023-08-21T06:01:00;72233.34;;;25.21
64600;BMP280;6553;48.412;9.514;2023-08-21T06:03:26;72231.78;;;25.19
64600;BMP280;6553;48.412;9.514;2023-08-21T06:06:04;72231.78;;;25.19
64600;BMP280;6553;48.412;9.514;2023-08-21T06:08:30;72231.66;;;25.22
64600;BMP280;6553;48.412;9.514;2023-08-21T06:10:55;72233.91;;;25.21
64600;BMP280;6553;48.412;9.514;2023-08-21T06:13:21;72230.03;;;25.20
64600;BMP280;6553;48.412;9.514;2023-08-21T06:15:50;72229.50;;;25.20
64600;BMP280;6553;48.412;9.514;2023-08-21T06:18:17;72230.19;;;25.18
64600;BMP280;6553;48.412;9.514;2023-08-21T06:20:43;72229.09;;;25.17
64600;BMP280;6553;48.412;9.514;2023-08-21T06:23:10;72231.09;;;25.21
64600;BMP280;6553;48.412;9.514;2023-08-21T06:25:36;72231.25;;;25.19
64600;BMP280;6553;48.412;9.514;2023-08-21T06:28:03;72226.31;;;25.17
64600;BMP280;6553;48.412;9.514;2023-08-21T06:30:29;72226.06;;;25.22
64600;BMP280;6553;48.412;9.514;2023-08-21T06:32:55;72224.97;;;25.21
64600;BMP280;6553;48.412;9.514;2023-08-21T06:35:22;72234.97;;;25.22
64600;BMP280;6553;48.412;9.514;2023-08-21T06:37:52;72226.69;;;25.20
64600;BMP280;6553;48.412;9.514;2023-08-21T06:40:20;72227.78;;;25.21
64600;BMP280;6553;48.412;9.514;2023-08-21T06:42:46;72228.47;;;25.19
64600;BMP280;6553;48.412;9.514;2023-08-21T06:45:12;72226.69;;;25.20
64600;BMP280;6553;48.412;9.514;2023-08-21T06:47:38;72222.34;;;25.18
64600;BMP280;6553;48.412;9.514;2023-08-21T06:50:06;72228.97;;;25.19
64600;BMP280;6553;48.412;9.514;2023-08-21T06:52:31;72237.88;;;25.20
64600;BMP280;6553;48.412;9.514;2023-08-21T06:54:57;72237.78;;;25.22
64600;BMP280;6553;48.412;9.514;2023-08-21T06:57:23;72235.06;;;25.20
64600;BMP280;6553;48.412;9.514;2023-08-21T06:59:48;72232.69;;;25.23
64600;BMP280;6553;48.412;9.514;2023-08-21T07:02:14;72233.75;;;25.24
64600;BMP280;6553;48.412;9.514;2023-08-21T07:04:40;72232.69;;;25.23
64600;BMP280;6553;48.412;9.514;2023-08-21T07:07:06;72232.19;;;25.22
64600;BMP280;6553;48.412;9.514;2023-08-21T07:09:31;72234.28;;;25.24
64600;BMP280;6553;48.412;9.514;2023-08-21T07:11:57;72226.31;;;25.17
64600;BMP280;6553;48.412;9.514;2023-08-21T07:14:23;72228.16;;;25.24
64600;BMP280;6553;48.412;9.514;2023-08-21T07:16:48;72229.91;;;25.23
64600;BMP280;6553;48.412;9.514;2023-08-21T07:19:14;72239.72;;;25.27
64600;BMP280;6553;48.412;9.514;2023-08-21T07:21:40;72233.75;;;25.24
64600;BMP280;6553;48.412;9.514;2023-08-21T07:24:06;72242.53;;;25.27
64600;BMP280;6553;48.412;9.514;2023-08-21T07:26:32;72234.81;;;25.25
64600;BMP280;6553;48.412;9.514;2023-08-21T07:28:57;72238.69;;;25.26
64600;BMP280;6553;48.412;9.514;2023-08-21T07:31:23;72233.09;;;25.26
64600;BMP280;6553;48.412;9.514;2023-08-21T07:33:49;72238.69;;;25.26
64600;BMP280;6553;48.412;9.514;2023-08-21T07:36:15;72240.28;;;25.27
64600;BMP280;6553;48.412;9.514;2023-08-21T07:38:43;72238.56;;;25.28
64600;BMP280;6553;48.412;9.514;2023-08-21T07:41:11;72241.34;;;25.28
64600;BMP280;6553;48.412;9.514;2023-08-21T07:43:41;72244.00;;;25.31
64600;BMP280;6553;48.412;9.514;2023-08-21T07:46:10;72246.16;;;25.33
64600;BMP280;6553;48.412;9.514;2023-08-21T07:48:39;72237.88;;;25.30
64600;BMP280;6553;48.412;9.514;2023-08-21T07:51:05;72245.59;;;25.32
64600;BMP280;6553;48.412;9.514;2023-08-21T07:53:30;72242.81;;;25.32
64600;BMP280;6553;48.412;9.514;2023-08-21T07:55:58;72243.84;;;25.33
64600;BMP280;6553;48.412;9.514;2023-08-21T07:58:24;72241.75;;;25.31
64600;BMP280;6553;48.412;9.514;2023-08-21T08:00:49;72245.59;;;25.32
64600;BMP280;6553;48.412;9.514;2023-08-21T08:03:15;72236.84;;;25.29
64600;BMP280;6553;48.412;9.514;2023-08-21T08:05:41;72238.41;;;25.31
64600;BMP280;6553;48.412;9.514;2023-08-21T08:08:09;72246.66;;;25.33
64600;BMP280;6553;48.412;9.514;2023-08-21T08:10:39;72242.13;;;25.34
64600;BMP280;6553;48.412;9.514;2023-08-21T08:13:05;72241.75;;;25.31
64600;BMP280;6553;48.412;9.514;2023-08-21T08:15:31;72238.94;;;25.31
64600;BMP280;6553;48.412;9.514;2023-08-21T08:17:59;72241.06;;;25.33
64600;BMP280;6553;48.412;9.514;2023-08-21T08:20:25;72241.19;;;25.31
64600;BMP280;6553;48.412;9.514;2023-08-21T08:22:51;72247.72;;;25.34
64600;BMP280;6553;48.412;9.514;2023-08-21T08:25:17;72246.00;;;25.35
64600;BMP280;6553;48.412;9.514;2023-08-21T08:27:43;72247.56;;;25.37
64600;BMP280;6553;48.412;9.514;2023-08-21T08:30:10;72240.41;;;25.35
64600;BMP280;6553;48.412;9.514;2023-08-21T08:32:36;72254.78;;;25.38
64600;BMP280;6553;48.412;9.514;2023-08-21T08:35:02;72246.41;;;25.38
64600;BMP280;6553;48.412;9.514;2023-08-21T08:37:28;72245.47;;;25.35
64600;BMP280;6553;48.412;9.514;2023-08-21T08:39:54;72250.25;;;25.39
64600;BMP280;6553;48.412;9.514;2023-08-21T08:42:20;72248.66;;;25.38
64600;BMP280;6553;48.412;9.514;2023-08-21T08:44:47;72250.75;;;25.40
64600;BMP280;6553;48.412;9.514;2023-08-21T08:47:14;72249.19;;;25.38
64600;BMP280;6553;48.412;9.514;2023-08-21T08:49:41;72245.31;;;25.37
64600;BMP280;6553;48.412;9.514;2023-08-21T08:52:06;72249.34;;;25.36
64600;BMP280;6553;48.412;9.514;2023-08-21T08:54:33;72250.91;;;25.37
64600;BMP280;6553;48.412;9.514;2023-08-21T08:57:01;72249.19;;;25.38
64600;BMP280;6553;48.412;9.514;2023-08-21T08:59:31;72249.72;;;25.39
64600;BMP280;6553;48.412;9.514;2023-08-21T09:01:57;72253.56;;;25.40
64600;BMP280;6553;48.412;9.514;2023-08-21T09:04:23;72244.25;;;25.36
64600;BMP280;6553;48.412;9.514;2023-08-21T09:06:49;72244.25;;;25.36
64600;BMP280;6553;48.412;9.514;2023-08-21T09:09:14;72250.38;;;25.37
64600;BMP280;6553;48.412;9.514;2023-08-21T09:11:45;72255.16;;;25.41
64600;BMP280;6553;48.412;9.514;2023-08-21T09:14:12;72252.38;;;25.41
64600;BMP280;6553;48.412;9.514;2023-08-21T09:16:59;72255.56;;;25.44
64600;BMP280;6553;48.412;9.514;2023-08-21T09:19:25;72258.34;;;25.44
64600;BMP280;6553;48.412;9.514;2023-08-21T09:21:52;72251.84;;;25.41
64600;BMP280;6553;48.412;9.514;2023-08-21T09:24:18;72253.31;;;25.45
64600;BMP280;6553;48.412;9.514;2023-08-21T09:26:43;72251.28;;;25.40
64600;BMP280;6553;48.412;9.514;2023-08-21T09:29:09;72257.16;;;25.46
64600;BMP280;6553;48.412;9.514;2023-08-21T09:31:36;72249.97;;;25.44
64600;BMP280;6553;48.412;9.514;2023-08-21T09:34:04;72255.03;;;25.44
64600;BMP280;6553;48.412;9.514;2023-08-21T09:36:34;72257.69;;;25.46
64600;BMP280;6553;48.412;9.514;2023-08-21T09:39:00;72253.31;;;25.45
64600;BMP280;6553;48.412;9.514;2023-08-21T09:41:26;72257.69;;;25.46
64600;BMP280;6553;48.412;9.514;2023-08-21T09:43:53;72255.31;;;25.49
64600;BMP280;6553;48.412;9.514;2023-08-21T09:46:25;72262.75;;;25.46
64600;BMP280;6553;48.412;9.514;2023-08-21T09:48:53;72256.50;;;25.48
64600;BMP280;6553;48.412;9.514;2023-08-21T09:51:20;72257.69;;;25.46
64600;BMP280;6553;48.412;9.514;2023-08-21T09:53:48;72262.09;;;25.48
64600;BMP280;6553;48.412;9.514;2023-08-21T09:56:15;72259.13;;;25.50
64600;BMP280;6553;48.412;9.514;2023-08-21T09:58:41;72261.41;;;25.50
64600;BMP280;6553;48.412;9.514;2023-08-21T10:01:08;72267.00;;;25.50
64600;BMP280;6553;48.412;9.514;2023-08-21T10:03:41;72261.94;;;25.50
64600;BMP280;6553;48.412;9.514;2023-08-21T10:06:11;72259.13;;;25.50
64600;BMP280;6553;48.412;9.514;2023-08-21T10:08:39;72264.09;;;25.52
64600;BMP280;6553;48.412;9.514;2023-08-21T10:11:09;72267.41;;;25.53
64600;BMP280;6553;48.412;9.514;2023-08-21T10:13:37;72253.69;;;25.48
64600;BMP280;6553;48.412;9.514;2023-08-21T10:16:04;72269.69;;;25.52
64600;BMP280;6553;48.412;9.514;2023-08-21T10:18:36;72260.34;;;25.49
64600;BMP280;6553;48.412;9.514;2023-08-21T10:21:20;72267.41;;;25.53
64600;BMP280;6553;48.412;9.514;2023-08-21T10:23:49;72264.09;;;25.52
64600;BMP280;6553;48.412;9.514;2023-08-21T10:26:19;72265.41;;;25.48
64600;BMP280;6553;48.412;9.514;2023-08-21T10:29:03;72255.31;;;25.49
64600;BMP280;6553;48.412;9.514;2023-08-21T10:31:41;72265.13;;;25.53
64600;BMP280;6553;48.412;9.514;2023-08-21T10:34:10;72267.41;;;25.53
64600;BMP280;6553;48.412;9.514;2023-08-21T10:39:23;72284.94;;;25.69
64600;BMP280;6553;48.412;9.514;2023-08-21T10:42:10;72275.25;;;25.63
64600;BMP280;6553;48.412;9.514;2023-08-21T10:44:52;72271.53;;;25.59
64600;BMP280;6553;48.412;9.514;2023-08-21T10:47:19;72264.88;;;25.58
64600;BMP280;6553;48.412;9.514;2023-08-21T10:49:57;72272.72;;;25.58
64600;BMP280;6553;48.412;9.514;2023-08-21T10:52:29;72272.19;;;25.57
64600;BMP280;6553;48.412;9.514;2023-08-21T10:55:00;72272.19;;;25.57
64600;BMP280;6553;48.412;9.514;2023-08-21T10:57:31;72269.25;;;25.60
64600;BMP280;6553;48.412;9.514;2023-08-21T11:00:02;72276.06;;;25.58
64600;BMP280;6553;48.412;9.514;2023-08-21T11:02:32;72267.41;;;25.53
64600;BMP280;6553;48.412;9.514;2023-08-21T11:05:00;72267.81;;;25.56
64600;BMP280;6553;48.412;9.514;2023-08-21T11:07:27;72265.41;;;25.59
64600;BMP280;6553;48.412;9.514;2023-08-21T11:09:53;72266.06;;;25.57
64600;BMP280;6553;48.412;9.514;2023-08-21T11:12:21;72273.78;;;25.59
64600;BMP280;6553;48.412;9.514;2023-08-21T11:14:48;72265.66;;;25.54
64600;BMP280;6553;48.412;9.514;2023-08-21T11:17:14;72268.19;;;25.59
64600;BMP280;6553;48.412;9.514;2023-08-21T11:19:42;72274.19;;;25.62
64600;BMP280;6553;48.412;9.514;2023-08-21T11:22:08;72272.72;;;25.58
64600;BMP280;6553;48.412;9.514;2023-08-21T11:27:04;72275.91;;;25.61
64600;BMP280;6553;48.412;9.514;2023-08-21T11:29:41;72269.38;;;25.57
64600;BMP280;6553;48.412;9.514;2023-08-21T11:32:29;72272.06;;;25.60
64600;BMP280;6553;48.412;9.514;2023-08-21T11:34:56;72272.44;;;25.63
64600;BMP280;6553;48.412;9.514;2023-08-21T11:37:25;72276.44;;;25.61
64600;BMP280;6553;48.412;9.514;2023-08-21T11:39:57;72275.25;;;25.63
64600;BMP280;6553;48.412;9.514;2023-08-21T11:42:30;72280.81;;;25.63
64600;BMP280;6553;48.412;9.514;2023-08-21T11:44:57;72281.91;;;25.64
64600;BMP280;6553;48.412;9.514;2023-08-21T11:47:30;72274.72;;;25.62
64600;BMP280;6553;48.412;9.514;2023-08-21T11:49:57;72276.44;;;25.61
64600;BMP280;6553;48.412;9.514;2023-08-21T11:52:23;72272.59;;;25.60
64600;BMP280;6553;48.412;9.514;2023-08-21T11:54:54;72274.72;;;25.62
64600;BMP280;6553;48.412;9.514;2023-08-21T11:57:21;72272.59;;;25.60
64600;BMP280;6553;48.412;9.514;2023-08-21T11:59:53;72266.34;;;25.52
64600;BMP280;6553;48.412;9.514;2023-08-21T12:02:28;72276.31;;;25.64
64600;BMP280;6553;48.412;9.514;2023-08-21T12:05:01;72278.03;;;25.63
64600;BMP280;6553;48.412;9.514;2023-08-21T12:07:28;72277.50;;;25.62
64600;BMP280;6553;48.412;9.514;2023-08-21T12:09:53;72286.69;;;25.68
64600;BMP280;6553;48.412;9.514;2023-08-21T12:12:19;72278.44;;;25.66
64600;BMP280;6553;48.412;9.514;2023-08-21T12:14:46;72284.03;;;25.66
64600;BMP280;6553;48.412;9.514;2023-08-21T12:17:12;72282.28;;;25.67
64600;BMP280;6553;48.412;9.514;2023-08-21T12:19:38;72281.75;;;25.66
64600;BMP280;6553;48.412;9.514;2023-08-21T12:22:04;72278.44;;;25.66
64600;BMP280;6553;48.412;9.514;2023-08-21T12:24:31;72280.16;;;25.65
64600;BMP280;6553;48.412;9.514;2023-08-21T12:26:56;72274.56;;;25.65
64600;BMP280;6553;48.412;9.514;2023-08-21T12:29:22;72271.00;;;25.59
64600;BMP280;6553;48.412;9.514;2023-08-21T12:31:48;72274.03;;;25.64
64600;BMP280;6553;48.412;9.514;2023-08-21T12:34:14;72281.25;;;25.66
64600;BMP280;6553;48.412;9.514;2023-08-21T12:36:40;72273.50;;;25.64
64600;BMP280;6553;48.412;9.514;2023-08-21T12:39:06;72281.75;;;25.66
64600;BMP280;6553;48.412;9.514;2023-08-21T12:41:33;72276.31;;;25.64
64600;BMP280;6553;48.412;9.514;2023-08-21T12:44:00;72280.03;;;25.67
64600;BMP280;6553;48.412;9.514;2023-08-21T12:46:26;72278.97;;;25.66
64600;BMP280;6553;48.412;9.514;2023-08-21T12:48:53;72284.44;;;25.69
64600;BMP280;6553;48.412;9.514;2023-08-21T12:51:20;72274.03;;;25.64
64600;BMP280;6553;48.412;9.514;2023-08-21T12:53:45;72280.03;;;25.67
64600;BMP280;6553;48.412;9.514;2023-08-21T12:56:11;72281.25;;;25.66
64600;BMP280;6553;48.412;9.514;2023-08-21T12:58:37;72284.44;;;25.69
64600;BMP280;6553;48.412;9.514;2023-08-21T13:01:02;72280.56;;;25.68
64600;BMP280;6553;48.412;9.514;2023-08-21T13:03:33;72283.88;;;25.68
64600;BMP280;6553;48.412;9.514;2023-08-21T13:05:59;72285.47;;;25.70
64600;BMP280;6553;48.412;9.514;2023-08-21T13:08:25;72280.56;;;25.68
64600;BMP280;6553;48.412;9.514;2023-08-21T13:10:50;72286.03;;;25.70
64600;BMP280;6553;48.412;9.514;2023-08-21T13:13:16;72284.81;;;25.72
64600;BMP280;6553;48.412;9.514;2023-08-21T13:15:42;72283.34;;;25.68
64600;BMP280;6553;48.412;9.514;2023-08-21T13:18:10;72283.75;;;25.71
64600;BMP280;6553;48.412;9.514;2023-08-21T13:20:37;72283.34;;;25.68
64600;BMP280;6553;48.412;9.514;2023-08-21T13:23:03;72284.94;;;25.69
64600;BMP280;6553;48.412;9.514;2023-08-21T13:25:28;72284.44;;;25.69
64600;BMP280;6553;48.412;9.514;2023-08-21T13:27:55;72287.06;;;25.71
64600;BMP280;6553;48.412;9.514;2023-08-21T13:30:21;72286.03;;;25.70
64600;BMP280;6553;48.412;9.514;2023-08-21T13:32:48;72283.75;;;25.71
64600;BMP280;6553;48.412;9.514;2023-08-21T13:35:13;72282.56;;;25.72
64600;BMP280;6553;48.412;9.514;2023-08-21T13:37:40;72288.66;;;25.73
64600;BMP280;6553;48.412;9.514;2023-08-21T13:40:07;72286.41;;;25.73
64600;BMP280;6553;48.412;9.514;2023-08-21T13:42:41;72286.94;;;25.74
64600;BMP280;6553;48.412;9.514;2023-08-21T13:45:09;72288.00;;;25.75
64600;BMP280;6553;48.412;9.514;2023-08-21T13:47:40;72284.16;;;25.74
64600;BMP280;6553;48.412;9.514;2023-08-21T13:50:07;72290.81;;;25.75
64600;BMP280;6553;48.412;9.514;2023-08-21T13:52:34;72288.16;;;25.72
64600;BMP280;6553;48.412;9.514;2023-08-21T13:55:01;72288.00;;;25.75
64600;BMP280;6553;48.412;9.514;2023-08-21T13:57:28;72282.56;;;25.72
64600;BMP280;6553;48.412;9.514;2023-08-21T13:59:54;72286.94;;;25.74
64600;BMP280;6553;48.412;9.514;2023-08-21T14:02:20;72283.75;;;25.71
64600;BMP280;6553;48.412;9.514;2023-08-21T14:04:46;72287.63;;;25.72
64600;BMP280;6553;48.412;9.514;2023-08-21T14:07:12;72287.63;;;25.72
64600;BMP280;6553;48.412;9.514;2023-08-21T14:09:38;72281.34;;;25.74
64600;BMP280;6553;48.412;9.514;2023-08-21T14:12:05;72289.59;;;25.76
64600;BMP280;6553;48.412;9.514;2023-08-21T14:14:34;72285.22;;;25.75
64600;BMP280;6553;48.412;9.514;2023-08-21T14:17:00;72286.81;;;25.76
64600;BMP280;6553;48.412;9.514;2023-08-21T14:19:25;72289.06;;;25.76
64600;BMP280;6553;48.412;9.514;2023-08-21T14:21:51;72286.41;;;25.73
64600;BMP280;6553;48.412;9.514;2023-08-21T14:24:17;72287.50;;;25.74
64600;BMP280;6553;48.412;9.514;2023-08-21T14:26:43;72289.06;;;25.76
64600;BMP280;6553;48.412;9.514;2023-08-21T14:29:08;72288.66;;;25.73